PWSweather.com
Personal Weather Stations
Station Observations

ChardChardGB

Lat: 50.877408, Lon: -2.94964741

Elevation: 341

Station Type: WS3083

http://www.merriott-astro.co.uk/weather/index.htm

High Low Average
Temperature 54.7°F12.6°C 45.5°F7.5°C 48.5°F9.2°C
Dew Point 44.5°F6.9°C 39.6°F4.2°C 41.1°F5.1°C
Winds 9.8 mph 15.8 kmh Calm Calm 5.0 mph SE8.0 kmh SE
Wind Gusts 16.8 mph27.0 kmh -- 7.0 mph11.3 kmh
Humidity 81% 57% 76%
Pressure 28.86 in977.3 mb 28.67 in970.9 mb -
Precipitation 0.27 in6.9 mm - -
Hour Temp Dew Point Humidity Winds Wind Gusts Pressure Precip Precip Rate Daily Precip Total
12:00 AM 46.2°F7.9°C 40.1°F4.5°C 79% 6.8 mph E10.9 kmh E 10.7 mph17.2 kmh 28.70 in971.9 mb 0.00 in0.0 mm 0.00 in0.0 mm 0.00 in0.0 mm
12:10 AM 46.2°F7.9°C 40.4°F4.7°C 80% 7.2 mph SE11.6 kmh SE 11.4 mph18.3 kmh 28.70 in971.9 mb 0.11 in2.8 mm 0.66 in16.8 mm 0.01 in0.3 mm
12:20 AM 46.4°F8.0°C 40.6°F4.8°C 80% 6.3 mph ENE10.1 kmh ENE 14.5 mph23.3 kmh 28.69 in971.6 mb 0.09 in2.3 mm 0.00 in0.0 mm 0.02 in0.5 mm
12:30 AM 46.8°F8.2°C 40.9°F4.9°C 80% 8.0 mph SE12.9 kmh SE 10.7 mph17.2 kmh 28.69 in971.6 mb 0.09 in2.3 mm 0.00 in0.0 mm 0.04 in1.0 mm
12:40 AM 46.9°F8.3°C 41.1°F5.1°C 80% 7.6 mph SSE12.2 kmh SSE 10.7 mph17.2 kmh 28.68 in971.2 mb 0.08 in2.0 mm 0.00 in0.0 mm 0.05 in1.3 mm
12:50 AM 47.1°F8.4°C 41.6°F5.3°C 81% 8.0 mph SE12.9 kmh SE 11.4 mph18.3 kmh 28.68 in971.2 mb 0.07 in1.8 mm 0.00 in0.0 mm 0.06 in1.5 mm
01:00 AM 47.3°F8.5°C 41.8°F5.4°C 81% 7.4 mph SSE11.9 kmh SSE 12.1 mph19.5 kmh 28.68 in971.2 mb 0.07 in1.8 mm 0.00 in0.0 mm 0.07 in1.8 mm
01:10 AM 47.3°F8.5°C 41.8°F5.4°C 81% 7.3 mph ESE11.7 kmh ESE 11.4 mph18.3 kmh 28.67 in970.9 mb 0.07 in1.8 mm 0.00 in0.0 mm 0.08 in2.0 mm
01:20 AM 47.1°F8.4°C 41.6°F5.3°C 81% 7.5 mph SSE12.1 kmh SSE 10.7 mph17.2 kmh 28.67 in970.9 mb 0.08 in2.0 mm 0.06 in1.5 mm 0.11 in2.8 mm
01:30 AM 47.1°F8.4°C 41.6°F5.3°C 81% 7.0 mph SE11.3 kmh SE 9.2 mph14.8 kmh 28.67 in970.9 mb 0.08 in2.0 mm 0.00 in0.0 mm 0.12 in3.0 mm
01:40 AM 47.1°F8.4°C 41.6°F5.3°C 81% 5.3 mph E8.5 kmh E 7.6 mph12.2 kmh 28.68 in971.2 mb 0.07 in1.8 mm 0.00 in0.0 mm 0.12 in3.0 mm
01:50 AM 47.1°F8.4°C 41.6°F5.3°C 81% 5.0 mph S8.0 kmh S 8.3 mph13.4 kmh 28.68 in971.2 mb 0.08 in2.0 mm 0.06 in1.5 mm 0.14 in3.6 mm
02:00 AM 47.1°F8.4°C 41.6°F5.3°C 81% 3.7 mph SSW6.0 kmh SSW 6.9 mph11.1 kmh 28.67 in970.9 mb 0.08 in2.0 mm 0.00 in0.0 mm 0.15 in3.8 mm
02:10 AM 46.9°F8.3°C 41.4°F5.2°C 81% 4.6 mph S7.4 kmh S 7.6 mph12.2 kmh 28.68 in971.2 mb 0.07 in1.8 mm 0.00 in0.0 mm 0.15 in3.8 mm
02:20 AM 46.8°F8.2°C 41.2°F5.1°C 81% 4.2 mph SSW6.8 kmh SSW 6.9 mph11.1 kmh 28.67 in970.9 mb 0.06 in1.5 mm 0.00 in0.0 mm 0.17 in4.3 mm
02:30 AM 46.8°F8.2°C 41.2°F5.1°C 81% 3.8 mph SSW6.1 kmh SSW 5.4 mph8.7 kmh 28.67 in970.9 mb 0.05 in1.3 mm 0.00 in0.0 mm 0.17 in4.3 mm
02:40 AM 46.6°F8.1°C 41.1°F5.1°C 81% 3.8 mph SSW6.1 kmh SSW 5.4 mph8.7 kmh 28.68 in971.2 mb 0.05 in1.3 mm 0.00 in0.0 mm 0.17 in4.3 mm
02:50 AM 46.4°F8.0°C 40.9°F4.9°C 81% 3.0 mph S4.8 kmh S 4.5 mph7.2 kmh 28.67 in970.9 mb 0.02 in0.5 mm 0.00 in0.0 mm 0.17 in4.3 mm
03:00 AM 46.2°F7.9°C 40.7°F4.8°C 81% 2.5 mph S4.0 kmh S 4.5 mph7.2 kmh 28.67 in970.9 mb 0.01 in0.3 mm 0.00 in0.0 mm 0.17 in4.3 mm
03:10 AM 46.0°F7.8°C 40.5°F4.7°C 81% 2.7 mph S4.3 kmh S 4.5 mph7.2 kmh 28.68 in971.2 mb 0.02 in0.5 mm 0.06 in1.5 mm 0.18 in4.6 mm
03:20 AM 46.0°F7.8°C 40.5°F4.7°C 81% 2.9 mph S4.7 kmh S 3.8 mph6.1 kmh 28.67 in970.9 mb 0.01 in0.3 mm 0.00 in0.0 mm 0.18 in4.6 mm
03:30 AM 45.9°F7.7°C 40.4°F4.7°C 81% 1.8 mph SW2.9 kmh SW 3.8 mph6.1 kmh 28.68 in971.2 mb 0.01 in0.3 mm 0.00 in0.0 mm 0.18 in4.6 mm
03:40 AM 45.9°F7.7°C 40.4°F4.7°C 81% 3.2 mph S5.1 kmh S 3.8 mph6.1 kmh 28.68 in971.2 mb 0.02 in0.5 mm 0.06 in1.5 mm 0.19 in4.8 mm
03:50 AM 45.9°F7.7°C 40.4°F4.7°C 81% 4.2 mph S6.8 kmh S 5.4 mph8.7 kmh 28.69 in971.6 mb 0.02 in0.5 mm 0.00 in0.0 mm 0.19 in4.8 mm
04:00 AM 45.9°F7.7°C 40.4°F4.7°C 81% 5.4 mph S8.7 kmh S 5.4 mph8.7 kmh 28.68 in971.2 mb 0.02 in0.5 mm 0.00 in0.0 mm 0.19 in4.8 mm
04:10 AM 45.9°F7.7°C 40.4°F4.7°C 81% 5.4 mph S8.7 kmh S 5.4 mph8.7 kmh 28.68 in971.2 mb 0.01 in0.3 mm 0.00 in0.0 mm 0.19 in4.8 mm
04:20 AM 45.9°F7.7°C 40.4°F4.7°C 81% 5.4 mph S8.7 kmh S 5.4 mph8.7 kmh 28.68 in971.2 mb 0.01 in0.3 mm 0.00 in0.0 mm 0.19 in4.8 mm
04:30 AM 45.9°F7.7°C 40.4°F4.7°C 81% 5.4 mph S8.7 kmh S 5.4 mph8.7 kmh 28.68 in971.2 mb 0.01 in0.3 mm 0.00 in0.0 mm 0.19 in4.8 mm
04:40 AM 45.9°F7.7°C 40.4°F4.7°C 81% 5.4 mph S8.7 kmh S 5.4 mph8.7 kmh 28.67 in970.9 mb 0.00 in0.0 mm 0.00 in0.0 mm 0.19 in4.8 mm
04:50 AM 45.9°F7.7°C 40.4°F4.7°C 81% 5.4 mph S8.7 kmh S 5.4 mph8.7 kmh 28.68 in971.2 mb 0.00 in0.0 mm 0.00 in0.0 mm 0.19 in4.8 mm
05:00 AM 45.9°F7.7°C 40.4°F4.7°C 81% 5.4 mph S8.7 kmh S 5.4 mph8.7 kmh 28.70 in971.9 mb 0.00 in0.0 mm 0.00 in0.0 mm 0.19 in4.8 mm
05:10 AM 45.9°F7.7°C 40.4°F4.7°C 81% 5.4 mph S8.7 kmh S 5.4 mph8.7 kmh 28.70 in971.9 mb 0.00 in0.0 mm 0.00 in0.0 mm 0.19 in4.8 mm
05:20 AM 45.9°F7.7°C 40.4°F4.7°C 81% 5.4 mph S8.7 kmh S 5.4 mph8.7 kmh 28.69 in971.6 mb 0.00 in0.0 mm 0.00 in0.0 mm 0.19 in4.8 mm
05:30 AM 45.9°F7.7°C 40.4°F4.7°C 81% 5.4 mph S8.7 kmh S 5.4 mph8.7 kmh 28.70 in971.9 mb 0.00 in0.0 mm 0.00 in0.0 mm 0.19 in4.8 mm
05:40 AM 45.9°F7.7°C 40.4°F4.7°C 81% 5.4 mph S8.7 kmh S 5.4 mph8.7 kmh 28.70 in971.9 mb 0.00 in0.0 mm 0.00 in0.0 mm 0.19 in4.8 mm
05:50 AM 45.9°F7.7°C 40.4°F4.7°C 81% 5.4 mph S8.7 kmh S 5.4 mph8.7 kmh 28.69 in971.6 mb 0.00 in0.0 mm 0.00 in0.0 mm 0.19 in4.8 mm
06:00 AM 45.9°F7.7°C 40.4°F4.7°C 81% 5.4 mph S8.7 kmh S 5.4 mph8.7 kmh 28.70 in971.9 mb 0.00 in0.0 mm 0.00 in0.0 mm 0.19 in4.8 mm
06:10 AM 45.9°F7.7°C 40.4°F4.7°C 81% 5.4 mph S8.7 kmh S 5.4 mph8.7 kmh 28.70 in971.9 mb 0.00 in0.0 mm 0.00 in0.0 mm 0.19 in4.8 mm
06:20 AM 45.9°F7.7°C 40.4°F4.7°C 81% 5.4 mph S8.7 kmh S 5.4 mph8.7 kmh 28.71 in972.2 mb 0.00 in0.0 mm 0.00 in0.0 mm 0.19 in4.8 mm
06:30 AM 45.9°F7.7°C 40.4°F4.7°C 81% 5.4 mph S8.7 kmh S 5.4 mph8.7 kmh 28.71 in972.2 mb 0.00 in0.0 mm 0.00 in0.0 mm 0.19 in4.8 mm
06:40 AM 45.9°F7.7°C 40.4°F4.7°C 81% 5.4 mph S8.7 kmh S 5.4 mph8.7 kmh 28.71 in972.2 mb 0.00 in0.0 mm 0.00 in0.0 mm 0.19 in4.8 mm
06:50 AM 45.9°F7.7°C 40.4°F4.7°C 81% 5.4 mph S8.7 kmh S 5.4 mph8.7 kmh 28.71 in972.2 mb 0.00 in0.0 mm 0.00 in0.0 mm 0.19 in4.8 mm
07:00 AM 45.9°F7.7°C 40.4°F4.7°C 81% 5.4 mph S8.7 kmh S 5.4 mph8.7 kmh 28.71 in972.2 mb 0.00 in0.0 mm 0.00 in0.0 mm 0.19 in4.8 mm
07:10 AM 45.9°F7.7°C 40.4°F4.7°C 81% 5.4 mph S8.7 kmh S 5.4 mph8.7 kmh 28.71 in972.2 mb 0.00 in0.0 mm 0.00 in0.0 mm 0.19 in4.8 mm
07:20 AM 45.9°F7.7°C 40.4°F4.7°C 81% 5.4 mph S8.7 kmh S 5.4 mph8.7 kmh 28.71 in972.2 mb 0.00 in0.0 mm 0.00 in0.0 mm 0.19 in4.8 mm
07:30 AM 45.9°F7.7°C 40.4°F4.7°C 81% 5.4 mph S8.7 kmh S 5.4 mph8.7 kmh 28.71 in972.2 mb 0.00 in0.0 mm 0.00 in0.0 mm 0.19 in4.8 mm
07:40 AM 45.9°F7.7°C 40.4°F4.7°C 81% 5.4 mph S8.7 kmh S 5.4 mph8.7 kmh 28.71 in972.2 mb 0.00 in0.0 mm 0.00 in0.0 mm 0.19 in4.8 mm
07:50 AM 45.9°F7.7°C 40.4°F4.7°C 81% 5.4 mph S8.7 kmh S 5.4 mph8.7 kmh 28.72 in972.6 mb 0.00 in0.0 mm 0.00 in0.0 mm 0.19 in4.8 mm
08:00 AM 45.9°F7.7°C 40.4°F4.7°C 81% 5.4 mph S8.7 kmh S 5.4 mph8.7 kmh 28.71 in972.2 mb 0.00 in0.0 mm 0.00 in0.0 mm 0.19 in4.8 mm
08:10 AM 45.9°F7.7°C 40.4°F4.7°C 81% 5.4 mph S8.7 kmh S 5.4 mph8.7 kmh 28.71 in972.2 mb 0.00 in0.0 mm 0.00 in0.0 mm 0.19 in4.8 mm
08:20 AM 45.9°F7.7°C 40.4°F4.7°C 81% 5.4 mph S8.7 kmh S 5.4 mph8.7 kmh 28.72 in972.6 mb 0.00 in0.0 mm 0.00 in0.0 mm 0.19 in4.8 mm
08:30 AM 45.9°F7.7°C 40.4°F4.7°C 81% 5.4 mph S8.7 kmh S 5.4 mph8.7 kmh 28.71 in972.2 mb 0.00 in0.0 mm 0.00 in0.0 mm 0.19 in4.8 mm
08:40 AM 45.9°F7.7°C 40.4°F4.7°C 81% 5.4 mph S8.7 kmh S 5.4 mph8.7 kmh 28.72 in972.6 mb 0.00 in0.0 mm 0.00 in0.0 mm 0.19 in4.8 mm
08:50 AM 45.9°F7.7°C 40.4°F4.7°C 81% 5.4 mph S8.7 kmh S 5.4 mph8.7 kmh 28.73 in972.9 mb 0.00 in0.0 mm 0.00 in0.0 mm 0.19 in4.8 mm
09:00 AM 45.9°F7.7°C 40.4°F4.7°C 81% 5.4 mph S8.7 kmh S 5.4 mph8.7 kmh 28.74 in973.2 mb 0.00 in0.0 mm 0.00 in0.0 mm 0.19 in4.8 mm
09:10 AM 45.9°F7.7°C 40.4°F4.7°C 81% 5.4 mph S8.7 kmh S 5.4 mph8.7 kmh 28.74 in973.2 mb 0.00 in0.0 mm 0.00 in0.0 mm 0.19 in4.8 mm
09:20 AM 49.3°F9.6°C 43.7°F6.5°C 81% 5.2 mph SSW8.4 kmh SSW 7.6 mph12.2 kmh 28.75 in973.6 mb 0.00 in0.0 mm 0.00 in0.0 mm 0.19 in4.8 mm
09:30 AM 49.6°F9.8°C 44.1°F6.7°C 81% 5.4 mph SE8.7 kmh SE 6.9 mph11.1 kmh 28.75 in973.6 mb 0.00 in0.0 mm 0.00 in0.0 mm 0.19 in4.8 mm
09:40 AM 49.6°F9.8°C 44.1°F6.7°C 81% 3.8 mph SE6.1 kmh SE 3.8 mph6.1 kmh 28.74 in973.2 mb 0.00 in0.0 mm 0.00 in0.0 mm 0.19 in4.8 mm
09:50 AM 49.6°F9.8°C 44.1°F6.7°C 81% 3.8 mph SE6.1 kmh SE 3.8 mph6.1 kmh 28.75 in973.6 mb 0.00 in0.0 mm 0.00 in0.0 mm 0.19 in4.8 mm
10:00 AM 49.6°F9.8°C 44.1°F6.7°C 81% 3.8 mph SE6.1 kmh SE 3.8 mph6.1 kmh 28.75 in973.6 mb 0.00 in0.0 mm 0.00 in0.0 mm 0.19 in4.8 mm
10:10 AM 49.6°F9.8°C 44.1°F6.7°C 81% 3.8 mph SE6.1 kmh SE 3.8 mph6.1 kmh 28.74 in973.2 mb 0.00 in0.0 mm 0.00 in0.0 mm 0.19 in4.8 mm
10:20 AM 49.6°F9.8°C 44.1°F6.7°C 81% 3.8 mph SE6.1 kmh SE 3.8 mph6.1 kmh 28.75 in973.6 mb 0.00 in0.0 mm 0.00 in0.0 mm 0.19 in4.8 mm
10:30 AM 50.7°F10.4°C 43.4°F6.3°C 76% 6.6 mph S10.6 kmh S 8.3 mph13.4 kmh 28.75 in973.6 mb 0.00 in0.0 mm 0.00 in0.0 mm 0.19 in4.8 mm
10:40 AM 50.9°F10.5°C 43.3°F6.3°C 75% 7.1 mph S11.4 kmh S 14.5 mph23.3 kmh 28.75 in973.6 mb 0.01 in0.3 mm 0.06 in1.5 mm 0.20 in5.1 mm
10:50 AM 50.5°F10.3°C 42.9°F6.1°C 75% 8.2 mph S13.2 kmh S 10.7 mph17.2 kmh 28.76 in973.9 mb 0.01 in0.3 mm 0.00 in0.0 mm 0.20 in5.1 mm
11:00 AM 51.6°F10.9°C 44.0°F6.7°C 75% 7.9 mph S12.7 kmh S 11.4 mph18.3 kmh 28.76 in973.9 mb 0.01 in0.3 mm 0.00 in0.0 mm 0.20 in5.1 mm
11:10 AM 50.9°F10.5°C 42.6°F5.9°C 73% 7.1 mph S11.4 kmh S 12.1 mph19.5 kmh 28.77 in974.3 mb 0.01 in0.3 mm 0.00 in0.0 mm 0.20 in5.1 mm
11:20 AM 51.4°F10.8°C 43.4°F6.3°C 74% 7.3 mph SSW11.7 kmh SSW 12.1 mph19.5 kmh 28.76 in973.9 mb 0.01 in0.3 mm 0.00 in0.0 mm 0.20 in5.1 mm
11:30 AM 52.2°F11.2°C 43.4°F6.3°C 72% 7.5 mph SSE12.1 kmh SSE 9.8 mph15.8 kmh 28.76 in973.9 mb 0.01 in0.3 mm 0.00 in0.0 mm 0.20 in5.1 mm
11:40 AM 53.2°F11.8°C 44.5°F6.9°C 72% 4.9 mph S7.9 kmh S 7.6 mph12.2 kmh 28.76 in973.9 mb 0.00 in0.0 mm 0.00 in0.0 mm 0.20 in5.1 mm
11:50 AM 53.1°F11.7°C 42.4°F5.8°C 67% 8.6 mph S13.8 kmh S 11.4 mph18.3 kmh 28.76 in973.9 mb 0.00 in0.0 mm 0.00 in0.0 mm 0.20 in5.1 mm
12:00 PM 52.5°F11.4°C 43.0°F6.1°C 70% 8.1 mph SSE13.0 kmh SSE 9.8 mph15.8 kmh 28.76 in973.9 mb 0.00 in0.0 mm 0.00 in0.0 mm 0.20 in5.1 mm
12:10 PM 52.2°F11.2°C 42.7°F5.9°C 70% 5.6 mph SE9.0 kmh SE 9.8 mph15.8 kmh 28.77 in974.3 mb 0.00 in0.0 mm 0.00 in0.0 mm 0.20 in5.1 mm
12:20 PM 51.6°F10.9°C 42.2°F5.7°C 70% 6.0 mph S9.7 kmh S 9.8 mph15.8 kmh 28.77 in974.3 mb 0.00 in0.0 mm 0.00 in0.0 mm 0.20 in5.1 mm
12:30 PM 51.6°F10.9°C 42.5°F5.8°C 71% 7.1 mph SSW11.4 kmh SSW 10.7 mph17.2 kmh 28.76 in973.9 mb 0.00 in0.0 mm 0.00 in0.0 mm 0.20 in5.1 mm
12:40 PM 51.8°F11.0°C 42.3°F5.7°C 70% 8.1 mph E13.0 kmh E 14.5 mph23.3 kmh 28.76 in973.9 mb 0.00 in0.0 mm 0.00 in0.0 mm 0.20 in5.1 mm
12:50 PM 51.4°F10.8°C 42.4°F5.8°C 71% 5.3 mph SSW8.5 kmh SSW 10.7 mph17.2 kmh 28.76 in973.9 mb 0.00 in0.0 mm 0.00 in0.0 mm 0.20 in5.1 mm
01:00 PM 51.4°F10.8°C 42.4°F5.8°C 71% 4.1 mph ESE6.6 kmh ESE 9.8 mph15.8 kmh 28.76 in973.9 mb 0.00 in0.0 mm 0.00 in0.0 mm 0.20 in5.1 mm
01:10 PM 53.1°F11.7°C 43.9°F6.6°C 71% 7.3 mph SSW11.7 kmh SSW 16.8 mph27.0 kmh 28.76 in973.9 mb 0.00 in0.0 mm 0.00 in0.0 mm 0.20 in5.1 mm
01:20 PM 52.9°F11.6°C 43.0°F6.1°C 69% 6.5 mph SE10.5 kmh SE 10.7 mph17.2 kmh 28.76 in973.9 mb 0.00 in0.0 mm 0.00 in0.0 mm 0.20 in5.1 mm
01:30 PM 52.2°F11.2°C 42.7°F5.9°C 70% 5.2 mph SE8.4 kmh SE 7.6 mph12.2 kmh 28.76 in973.9 mb 0.00 in0.0 mm 0.00 in0.0 mm 0.20 in5.1 mm
01:40 PM 52.5°F11.4°C 43.0°F6.1°C 70% 6.3 mph SE10.1 kmh SE 9.2 mph14.8 kmh 28.76 in973.9 mb 0.00 in0.0 mm 0.00 in0.0 mm 0.20 in5.1 mm
01:50 PM 53.2°F11.8°C 43.3°F6.3°C 69% 5.7 mph WNW9.2 kmh WNW 10.7 mph17.2 kmh 28.75 in973.6 mb 0.00 in0.0 mm 0.00 in0.0 mm 0.20 in5.1 mm
02:00 PM 52.3°F11.3°C 42.1°F5.6°C 68% 7.2 mph SE11.6 kmh SE 9.2 mph14.8 kmh 28.75 in973.6 mb 0.00 in0.0 mm 0.00 in0.0 mm 0.20 in5.1 mm
02:10 PM 54.3°F12.4°C 42.8°F6.0°C 65% 6.6 mph S10.6 kmh S 10.7 mph17.2 kmh 28.75 in973.6 mb 0.00 in0.0 mm 0.00 in0.0 mm 0.20 in5.1 mm
02:20 PM 53.2°F11.8°C 41.4°F5.2°C 64% 9.8 mph SE15.8 kmh SE 12.1 mph19.5 kmh 28.76 in973.9 mb 0.00 in0.0 mm 0.00 in0.0 mm 0.20 in5.1 mm
02:30 PM 53.8°F12.1°C 42.3°F5.7°C 65% 8.2 mph SW13.2 kmh SW 11.4 mph18.3 kmh 28.75 in973.6 mb 0.00 in0.0 mm 0.00 in0.0 mm 0.20 in5.1 mm
02:40 PM 54.0°F12.2°C 41.7°F5.4°C 63% 8.2 mph SE13.2 kmh SE 12.1 mph19.5 kmh 28.76 in973.9 mb 0.00 in0.0 mm 0.00 in0.0 mm 0.20 in5.1 mm
02:50 PM 53.1°F11.7°C 41.2°F5.1°C 64% 8.5 mph ESE13.7 kmh ESE 11.4 mph18.3 kmh 28.75 in973.6 mb 0.00 in0.0 mm 0.00 in0.0 mm 0.20 in5.1 mm
03:00 PM 52.7°F11.5°C 41.3°F5.2°C 65% 8.2 mph SE13.2 kmh SE 11.4 mph18.3 kmh 28.75 in973.6 mb 0.00 in0.0 mm 0.00 in0.0 mm 0.20 in5.1 mm
03:10 PM 53.1°F11.7°C 41.6°F5.3°C 65% 6.3 mph SE10.1 kmh SE 9.8 mph15.8 kmh 28.75 in973.6 mb 0.00 in0.0 mm 0.00 in0.0 mm 0.20 in5.1 mm
03:20 PM 54.3°F12.4°C 42.4°F5.8°C 64% 8.9 mph S14.3 kmh S 12.1 mph19.5 kmh 28.76 in973.9 mb 0.00 in0.0 mm 0.00 in0.0 mm 0.20 in5.1 mm
03:30 PM 54.7°F12.6°C 39.8°F4.3°C 57% 7.5 mph SSE12.1 kmh SSE 13.0 mph20.9 kmh 28.76 in973.9 mb 0.00 in0.0 mm 0.00 in0.0 mm 0.20 in5.1 mm
03:40 PM 53.2°F11.8°C 41.0°F5.0°C 63% 7.7 mph ESE12.4 kmh ESE 13.0 mph20.9 kmh 28.76 in973.9 mb 0.00 in0.0 mm 0.00 in0.0 mm 0.20 in5.1 mm
03:50 PM 52.0°F11.1°C 39.8°F4.3°C 63% 6.5 mph SSE10.5 kmh SSE 9.8 mph15.8 kmh 28.76 in973.9 mb 0.00 in0.0 mm 0.00 in0.0 mm 0.20 in5.1 mm
04:00 PM 51.8°F11.0°C 40.0°F4.4°C 64% 6.3 mph SE10.1 kmh SE 10.7 mph17.2 kmh 28.76 in973.9 mb 0.00 in0.0 mm 0.00 in0.0 mm 0.20 in5.1 mm
04:10 PM 51.4°F10.8°C 39.7°F4.3°C 64% 6.7 mph ESE10.8 kmh ESE 13.6 mph21.9 kmh 28.76 in973.9 mb 0.00 in0.0 mm 0.00 in0.0 mm 0.20 in5.1 mm
04:20 PM 51.3°F10.7°C 39.9°F4.4°C 65% 6.4 mph ESE10.3 kmh ESE 9.8 mph15.8 kmh 28.76 in973.9 mb 0.00 in0.0 mm 0.00 in0.0 mm 0.20 in5.1 mm
04:30 PM 51.1°F10.6°C 39.7°F4.3°C 65% 4.8 mph S7.7 kmh S 9.2 mph14.8 kmh 28.75 in973.6 mb 0.00 in0.0 mm 0.00 in0.0 mm 0.20 in5.1 mm
04:40 PM 50.9°F10.5°C 40.0°F4.4°C 66% 4.6 mph SE7.4 kmh SE 7.6 mph12.2 kmh 28.76 in973.9 mb 0.00 in0.0 mm 0.00 in0.0 mm 0.20 in5.1 mm
04:50 PM 51.1°F10.6°C 39.7°F4.3°C 65% 3.5 mph SE5.6 kmh SE 6.0 mph9.7 kmh 28.76 in973.9 mb 0.00 in0.0 mm 0.00 in0.0 mm 0.20 in5.1 mm
05:00 PM 51.1°F10.6°C 39.7°F4.3°C 65% 4.8 mph E7.7 kmh E 9.2 mph14.8 kmh 28.75 in973.6 mb 0.00 in0.0 mm 0.00 in0.0 mm 0.20 in5.1 mm
05:10 PM 51.1°F10.6°C 39.7°F4.3°C 65% 4.5 mph E7.2 kmh E 7.6 mph12.2 kmh 28.76 in973.9 mb 0.00 in0.0 mm 0.00 in0.0 mm 0.20 in5.1 mm
05:20 PM 50.9°F10.5°C 39.6°F4.2°C 65% 2.8 mph ESE4.5 kmh ESE 5.4 mph8.7 kmh 28.76 in973.9 mb 0.00 in0.0 mm 0.00 in0.0 mm 0.20 in5.1 mm
05:30 PM 50.7°F10.4°C 39.8°F4.3°C 66% 3.0 mph SE4.8 kmh SE 5.4 mph8.7 kmh 28.76 in973.9 mb 0.00 in0.0 mm 0.00 in0.0 mm 0.20 in5.1 mm
05:40 PM 50.5°F10.3°C 39.6°F4.2°C 66% 1.0 mph E1.6 kmh E 3.8 mph6.1 kmh 28.77 in974.3 mb 0.00 in0.0 mm 0.00 in0.0 mm 0.20 in5.1 mm
05:50 PM 50.4°F10.2°C 39.8°F4.3°C 67% 1.4 mph E2.3 kmh E 4.5 mph7.2 kmh 28.77 in974.3 mb 0.00 in0.0 mm 0.00 in0.0 mm 0.20 in5.1 mm
06:00 PM 50.4°F10.2°C 39.8°F4.3°C 67% 2.8 mph SE4.5 kmh SE 5.4 mph8.7 kmh 28.76 in973.9 mb 0.00 in0.0 mm 0.00 in0.0 mm 0.20 in5.1 mm
06:10 PM 50.2°F10.1°C 40.0°F4.4°C 68% 2.5 mph S4.0 kmh S 6.0 mph9.7 kmh 28.77 in974.3 mb 0.00 in0.0 mm 0.00 in0.0 mm 0.20 in5.1 mm
06:20 PM 50.0°F10.0°C 39.9°F4.4°C 68% 1.9 mph SE3.1 kmh SE 7.6 mph12.2 kmh 28.77 in974.3 mb 0.00 in0.0 mm 0.00 in0.0 mm 0.20 in5.1 mm
06:30 PM 49.8°F9.9°C 39.7°F4.3°C 68% 0.9 mph E1.4 kmh E 4.5 mph7.2 kmh 28.77 in974.3 mb 0.00 in0.0 mm 0.00 in0.0 mm 0.20 in5.1 mm
06:40 PM 49.6°F9.8°C 40.3°F4.6°C 70% Calm Calm -- 28.77 in974.3 mb 0.00 in0.0 mm 0.00 in0.0 mm 0.20 in5.1 mm
06:50 PM 49.5°F9.7°C 40.1°F4.5°C 70% 2.4 mph SE3.9 kmh SE 5.4 mph8.7 kmh 28.78 in974.6 mb 0.02 in0.5 mm 0.12 in3.0 mm 0.22 in5.6 mm
07:00 PM 48.7°F9.3°C 40.1°F4.5°C 72% 1.4 mph NE2.3 kmh NE 5.4 mph8.7 kmh 28.79 in974.9 mb 0.04 in1.0 mm 0.02 in0.5 mm 0.24 in6.1 mm
07:10 PM 48.4°F9.1°C 40.1°F4.5°C 73% Calm Calm -- 28.79 in974.9 mb 0.04 in1.0 mm 0.00 in0.0 mm 0.24 in6.1 mm
07:20 PM 48.0°F8.9°C 39.8°F4.3°C 73% 0.5 mph SSE0.8 kmh SSE 3.8 mph6.1 kmh 28.79 in974.9 mb 0.05 in1.3 mm 0.06 in1.5 mm 0.25 in6.4 mm
07:30 PM 47.8°F8.8°C 40.0°F4.4°C 74% 1.1 mph ESE1.8 kmh ESE 5.4 mph8.7 kmh 28.78 in974.6 mb 0.05 in1.3 mm 0.00 in0.0 mm 0.25 in6.4 mm
07:40 PM 47.7°F8.7°C 40.1°F4.5°C 75% Calm Calm -- 28.78 in974.6 mb 0.05 in1.3 mm 0.00 in0.0 mm 0.25 in6.4 mm
07:50 PM 47.5°F8.6°C 40.0°F4.4°C 75% Calm Calm -- 28.79 in974.9 mb 0.02 in0.5 mm 0.00 in0.0 mm 0.25 in6.4 mm
08:00 PM 47.3°F8.5°C 39.8°F4.3°C 75% Calm Calm -- 28.79 in974.9 mb 0.01 in0.3 mm 0.00 in0.0 mm 0.25 in6.4 mm
08:10 PM 47.3°F8.5°C 40.1°F4.5°C 76% Calm Calm -- 28.79 in974.9 mb 0.01 in0.3 mm 0.00 in0.0 mm 0.25 in6.4 mm
08:20 PM 47.3°F8.5°C 40.5°F4.7°C 77% Calm Calm -- 28.79 in974.9 mb 0.00 in0.0 mm 0.00 in0.0 mm 0.25 in6.4 mm
08:30 PM 47.3°F8.5°C 40.5°F4.7°C 77% Calm Calm -- 28.80 in975.3 mb 0.00 in0.0 mm 0.00 in0.0 mm 0.25 in6.4 mm
08:40 PM 47.3°F8.5°C 40.8°F4.9°C 78% Calm Calm -- 28.80 in975.3 mb 0.00 in0.0 mm 0.00 in0.0 mm 0.25 in6.4 mm
08:50 PM 47.1°F8.4°C 40.6°F4.8°C 78% Calm Calm -- 28.80 in975.3 mb 0.01 in0.3 mm 0.06 in1.5 mm 0.26 in6.6 mm
09:00 PM 47.1°F8.4°C 40.6°F4.8°C 78% Calm Calm -- 28.79 in974.9 mb 0.01 in0.3 mm 0.00 in0.0 mm 0.26 in6.6 mm
09:10 PM 47.1°F8.4°C 40.6°F4.8°C 78% Calm Calm -- 28.80 in975.3 mb 0.01 in0.3 mm 0.00 in0.0 mm 0.26 in6.6 mm
09:20 PM 46.9°F8.3°C 40.4°F4.7°C 78% Calm Calm -- 28.81 in975.6 mb 0.01 in0.3 mm 0.00 in0.0 mm 0.26 in6.6 mm
09:30 PM 46.9°F8.3°C 40.8°F4.9°C 79% Calm Calm -- 28.81 in975.6 mb 0.01 in0.3 mm 0.00 in0.0 mm 0.26 in6.6 mm
09:40 PM 46.9°F8.3°C 40.8°F4.9°C 79% Calm Calm -- 28.81 in975.6 mb 0.02 in0.5 mm 0.06 in1.5 mm 0.27 in6.9 mm
09:50 PM 46.9°F8.3°C 40.8°F4.9°C 79% Calm Calm -- 28.82 in976.0 mb 0.01 in0.3 mm 0.00 in0.0 mm 0.27 in6.9 mm
10:00 PM 46.9°F8.3°C 40.8°F4.9°C 79% Calm Calm -- 28.81 in975.6 mb 0.01 in0.3 mm 0.00 in0.0 mm 0.27 in6.9 mm
10:10 PM 46.8°F8.2°C 40.6°F4.8°C 79% Calm Calm -- 28.82 in976.0 mb 0.01 in0.3 mm 0.00 in0.0 mm 0.27 in6.9 mm
10:20 PM 46.8°F8.2°C 40.9°F4.9°C 80% Calm Calm -- 28.82 in976.0 mb 0.01 in0.3 mm 0.00 in0.0 mm 0.27 in6.9 mm
10:30 PM 46.8°F8.2°C 40.9°F4.9°C 80% Calm Calm -- 28.82 in976.0 mb 0.01 in0.3 mm 0.00 in0.0 mm 0.27 in6.9 mm
10:40 PM 46.4°F8.0°C 40.6°F4.8°C 80% Calm Calm -- 28.83 in976.3 mb 0.00 in0.0 mm 0.00 in0.0 mm 0.20 in5.1 mm
10:50 PM 46.4°F8.0°C 40.6°F4.8°C 80% 2.8 mph NW4.5 kmh NW 8.3 mph13.4 kmh 28.83 in976.3 mb 0.00 in0.0 mm 0.00 in0.0 mm 0.21 in5.3 mm
11:00 PM 45.7°F7.6°C 39.9°F4.4°C 80% 6.0 mph N9.7 kmh N 8.3 mph13.4 kmh 28.83 in976.3 mb 0.00 in0.0 mm 0.00 in0.0 mm 0.22 in5.6 mm
11:10 PM 45.9°F7.7°C 40.0°F4.4°C 80% 5.5 mph NW8.9 kmh NW 8.3 mph13.4 kmh 28.84 in976.6 mb 0.00 in0.0 mm 0.00 in0.0 mm 0.22 in5.6 mm
11:20 PM 45.5°F7.5°C 39.7°F4.3°C 80% 1.4 mph NNW2.3 kmh NNW 3.1 mph5.0 kmh 28.85 in977.0 mb 0.00 in0.0 mm 0.00 in0.0 mm 0.22 in5.6 mm
11:30 PM 45.9°F7.7°C 40.0°F4.4°C 80% 3.4 mph SW5.5 kmh SW 5.4 mph8.7 kmh 28.85 in977.0 mb 0.00 in0.0 mm 0.00 in0.0 mm 0.24 in6.1 mm
11:40 PM 45.5°F7.5°C 39.7°F4.3°C 80% 2.9 mph W4.7 kmh W 9.2 mph14.8 kmh 28.85 in977.0 mb 0.04 in1.0 mm 0.24 in6.1 mm 0.24 in6.1 mm
11:50 PM 45.7°F7.6°C 39.9°F4.4°C 80% 3.2 mph SW5.1 kmh SW 6.0 mph9.7 kmh 28.86 in977.3 mb 0.04 in1.0 mm 0.00 in0.0 mm 0.25 in6.4 mm